createdAt,value
2019-04-26T00:00:35.787Z,99020.23
2019-04-26T00:03:14.192Z,99005.08
2019-04-26T00:05:50.357Z,99008.97
2019-04-26T00:08:26.251Z,98998.03
2019-04-26T00:11:03.802Z,98996.05
2019-04-26T00:14:03.006Z,98994.89
2019-04-26T00:16:47.981Z,98997.25
2019-04-26T00:19:23.927Z,98992.52
2019-04-26T00:22:00.190Z,98999.19
2019-04-26T00:24:36.566Z,98997.66
2019-04-26T00:27:12.710Z,98998.34
2019-04-26T00:29:49.087Z,98999.62
2019-04-26T00:32:25.143Z,98997.90
2019-04-26T00:35:01.212Z,98999.56
2019-04-26T00:37:37.172Z,98998.16
2019-04-26T00:40:14.418Z,99000.16
2019-04-26T00:42:52.118Z,98999.57
2019-04-26T00:45:30.972Z,98995.98
2019-04-26T00:48:07.648Z,98999.63
2019-04-26T00:50:44.988Z,98990.70
2019-04-26T00:53:22.204Z,98996.80
2019-04-26T00:56:00.141Z,98991.69
2019-04-26T00:58:37.208Z,98988.88
2019-04-26T01:01:15.088Z,98990.64
2019-04-26T01:03:52.090Z,98983.46
2019-04-26T01:06:29.685Z,98985.35
2019-04-26T01:09:07.076Z,98984.55
2019-04-26T01:11:44.596Z,98987.64
2019-04-26T01:14:20.480Z,98982.94
2019-04-26T01:16:56.443Z,98978.30
2019-04-26T01:19:33.425Z,98970.48
2019-04-26T01:22:12.274Z,98969.73
2019-04-26T01:24:49.985Z,98965.94
2019-04-26T01:27:28.442Z,98961.09
2019-04-26T01:30:10.178Z,98965.00
2019-04-26T01:32:46.954Z,98965.89
2019-04-26T01:35:24.173Z,98954.67
2019-04-26T01:38:02.758Z,98968.37
2019-04-26T01:40:42.483Z,98957.86
2019-04-26T01:43:21.666Z,98957.78
2019-04-26T01:46:02.914Z,98950.16
2019-04-26T01:49:01.206Z,98947.56
2019-04-26T01:51:48.931Z,98946.17
2019-04-26T01:54:29.940Z,98938.88
2019-04-26T01:57:06.472Z,98937.96
2019-04-26T01:59:46.010Z,98941.72
2019-04-26T02:02:32.617Z,98944.10
2019-04-26T02:05:10.622Z,98941.34
2019-04-26T02:07:46.900Z,98929.73
2019-04-26T02:10:26.556Z,98927.68
2019-04-26T02:13:02.691Z,98921.39
2019-04-26T02:15:38.957Z,98916.38
2019-04-26T02:18:14.919Z,98914.78
2019-04-26T02:20:54.861Z,98917.46
2019-04-26T02:23:38.597Z,98917.67
2019-04-26T02:26:34.849Z,98917.67
2019-04-26T02:29:13.963Z,98917.02
2019-04-26T02:31:54.627Z,98916.89
2019-04-26T02:34:35.227Z,98919.78
2019-04-26T02:37:13.280Z,98912.29
2019-04-26T02:39:49.665Z,98907.59
2019-04-26T02:42:30.957Z,98913.21
2019-04-26T02:45:20.840Z,98910.24
2019-04-26T02:48:16.362Z,98903.91
2019-04-26T02:50:56.823Z,98898.77
2019-04-26T02:53:47.510Z,98898.13
2019-04-26T02:56:30.297Z,98898.47
2019-04-26T02:59:12.334Z,98894.31
2019-04-26T03:01:50.694Z,98884.94
2019-04-26T03:04:28.929Z,98888.96
2019-04-26T03:07:09.007Z,98881.34
2019-04-26T03:09:48.044Z,98881.68
2019-04-26T03:12:26.965Z,98884.56
2019-04-26T03:15:14.058Z,98886.91
2019-04-26T03:17:56.927Z,98886.78
2019-04-26T03:20:40.053Z,98887.45
2019-04-26T03:23:20.193Z,98880.63
2019-04-26T03:26:17.220Z,98881.47
2019-04-26T03:29:02.090Z,98886.48
2019-04-26T03:31:53.406Z,98886.12
2019-04-26T03:34:43.367Z,98895.66
2019-04-26T03:37:40.469Z,98890.14
2019-04-26T03:40:38.945Z,98883.44
2019-04-26T03:43:27.232Z,98877.73
2019-04-26T03:46:24.219Z,98884.77
2019-04-26T03:49:23.840Z,98882.30
2019-04-26T03:52:19.562Z,98879.70
2019-04-26T03:55:02.568Z,98885.14
2019-04-26T03:57:47.025Z,98879.61
2019-04-26T04:00:29.638Z,98876.84
2019-04-26T04:03:26.835Z,98877.96
2019-04-26T04:06:05.104Z,98881.83
2019-04-26T04:08:48.164Z,98881.14
2019-04-26T04:11:40.850Z,98885.50
2019-04-26T04:14:34.964Z,98887.09
2019-04-26T04:17:15.417Z,98881.41
2019-04-26T04:20:13.710Z,98876.18
2019-04-26T04:23:18.446Z,98868.92
2019-04-26T04:25:56.365Z,98863.09
2019-04-26T04:28:36.063Z,98863.38
2019-04-26T04:31:35.254Z,98868.33
2019-04-26T04:34:32.242Z,98871.92
2019-04-26T04:37:11.151Z,98862.08
2019-04-26T04:39:59.606Z,98865.86
2019-04-26T04:42:58.414Z,98868.39
2019-04-26T04:46:10.674Z,98864.25
2019-04-26T04:49:25.530Z,98867.55
2019-04-26T04:52:13.300Z,98864.38
2019-04-26T04:55:06.769Z,98865.59
2019-04-26T04:57:53.147Z,98861.68
2019-04-26T05:00:56.061Z,98865.51
2019-04-26T05:03:47.025Z,98860.84
2019-04-26T05:06:35.809Z,98858.34
2019-04-26T05:09:17.106Z,98858.55
2019-04-26T05:12:07.943Z,98858.11
2019-04-26T05:15:04.661Z,98863.45
2019-04-26T05:17:43.475Z,98866.97
2019-04-26T05:20:34.904Z,98864.23
2019-04-26T05:23:42.541Z,98857.19
2019-04-26T05:26:31.556Z,98859.22
2019-04-26T05:29:42.123Z,98855.88
2019-04-26T05:32:20.958Z,98862.42
2019-04-26T05:35:06.029Z,98853.89
2019-04-26T05:38:17.998Z,98846.51
2019-04-26T05:41:03.195Z,98850.58
2019-04-26T05:44:18.571Z,98851.96
2019-04-26T05:47:31.094Z,98846.59
2019-04-26T05:50:38.785Z,98848.14
2019-04-26T05:53:44.755Z,98858.44
2019-04-26T05:56:40.158Z,98856.82
2019-04-26T05:59:46.589Z,98857.03
2019-04-26T06:02:32.622Z,98856.91
2019-04-26T06:05:25.183Z,98855.25
2019-04-26T06:08:30.660Z,98859.64
2019-04-26T06:11:02.705Z,98855.95
2019-04-26T06:14:00.177Z,98850.59
2019-04-26T06:16:49.316Z,98843.20
2019-04-26T06:19:57.327Z,98848.09
2019-04-26T06:22:36.242Z,98836.82
2019-04-26T06:25:31.348Z,98842.90
2019-04-26T06:28:20.768Z,98839.05
2019-04-26T06:31:03.493Z,98837.19
2019-04-26T06:33:42.469Z,98834.88
2019-04-26T06:36:23.139Z,98838.58
2019-04-26T06:39:21.407Z,98837.73
2019-04-26T06:42:09.600Z,98828.47
2019-04-26T06:45:21.449Z,98821.03
2019-04-26T06:48:23.014Z,98819.70
2019-04-26T06:51:24.668Z,98812.95
2019-04-26T06:54:07.492Z,98811.59
2019-04-26T06:57:11.500Z,98803.80
2019-04-26T06:59:57.418Z,98803.77
2019-04-26T07:03:08.472Z,98809.29
2019-04-26T07:05:47.808Z,98805.42
2019-04-26T07:08:38.921Z,98799.83
2019-04-26T07:11:31.466Z,98800.98
2019-04-26T07:14:19.610Z,98802.33
2019-04-26T07:17:04.574Z,98802.59
2019-04-26T07:20:04.399Z,98795.78
2019-04-26T07:23:19.556Z,98799.47
2019-04-26T07:26:08.621Z,98802.78
2019-04-26T07:29:13.770Z,98797.16
2019-04-26T07:32:09.524Z,98790.39
2019-04-26T07:35:02.711Z,98788.36
2019-04-26T07:38:06.950Z,98781.91
2019-04-26T07:41:15.889Z,98785.58
2019-04-26T07:44:14.169Z,98781.80
2019-04-26T07:47:03.084Z,98793.04
2019-04-26T07:50:11.566Z,98792.35
2019-04-26T07:53:17.827Z,98795.52
2019-04-26T07:56:13.582Z,98777.92
2019-04-26T07:59:09.355Z,98778.36
2019-04-26T08:02:24.024Z,98776.61
2019-04-26T08:05:05.753Z,98778.85
2019-04-26T08:07:45.203Z,98781.75
2019-04-26T08:10:23.411Z,98782.01
2019-04-26T08:13:06.097Z,98785.34
2019-04-26T08:16:06.726Z,98783.58
2019-04-26T08:18:51.163Z,98781.50
2019-04-26T08:21:32.036Z,98785.70
2019-04-26T08:24:18.980Z,98783.30
2019-04-26T08:27:18.788Z,98785.63
2019-04-26T08:29:50.608Z,98784.62
2019-04-26T08:32:32.061Z,98782.02
2019-04-26T08:35:16.127Z,98782.43
2019-04-26T08:37:52.949Z,98772.45
2019-04-26T08:40:31.424Z,98774.08
2019-04-26T08:43:10.882Z,98770.29
2019-04-26T08:46:02.850Z,98770.25
2019-04-26T08:48:47.698Z,98774.50
2019-04-26T08:51:25.190Z,98773.19
2019-04-26T08:54:05.752Z,98768.20
2019-04-26T08:56:44.666Z,98767.16
2019-04-26T08:59:26.665Z,98771.73
2019-04-26T09:02:05.920Z,98775.70
2019-04-26T09:04:45.644Z,98768.66
2019-04-26T09:07:31.401Z,98773.50
2019-04-26T09:10:11.282Z,98764.45
2019-04-26T09:12:49.373Z,98768.59
2019-04-26T09:15:43.271Z,98769.67
2019-04-26T09:18:20.353Z,98766.81
2019-04-26T09:20:56.608Z,98761.91
2019-04-26T09:23:52.183Z,98761.85
2019-04-26T09:26:32.545Z,98763.64
2019-04-26T09:29:26.457Z,98760.22
2019-04-26T09:32:16.282Z,98756.36
2019-04-26T09:34:52.311Z,98751.30
2019-04-26T09:37:28.462Z,98746.94
2019-04-26T09:40:10.545Z,98747.42
2019-04-26T09:42:48.932Z,98742.83
2019-04-26T09:45:35.796Z,98744.81
2019-04-26T09:48:13.279Z,98735.58
2019-04-26T09:50:50.875Z,98742.22
2019-04-26T09:53:26.839Z,98740.92
2019-04-26T09:56:02.797Z,98735.59
2019-04-26T09:58:38.743Z,98731.96
2019-04-26T10:01:14.712Z,98732.80
2019-04-26T10:03:51.790Z,98729.84
2019-04-26T10:06:29.729Z,98728.10
2019-04-26T10:09:10.353Z,98725.27
2019-04-26T10:11:54.814Z,98720.05
2019-04-26T10:14:32.411Z,98719.94
2019-04-26T10:17:15.795Z,98712.42
2019-04-26T10:19:52.170Z,98705.16
2019-04-26T10:22:29.690Z,98704.63
2019-04-26T10:25:16.135Z,98701.58
2019-04-26T10:27:46.007Z,98712.77
2019-04-26T10:30:22.384Z,98711.83
2019-04-26T10:33:02.093Z,98710.24
2019-04-26T10:35:36.033Z,98709.09
2019-04-26T10:38:13.134Z,98709.31
2019-04-26T10:40:49.077Z,98708.05
2019-04-26T10:43:25.032Z,98703.83
2019-04-26T10:46:00.980Z,98705.09
2019-04-26T10:48:36.948Z,98704.22
2019-04-26T10:51:14.433Z,98704.93
2019-04-26T10:53:54.889Z,98706.58
2019-04-26T10:56:35.359Z,98704.58
2019-04-26T10:59:18.808Z,98701.59
2019-04-26T11:01:54.850Z,98705.98
2019-04-26T11:04:30.985Z,98701.34
2019-04-26T11:07:07.067Z,98697.56
2019-04-26T11:09:43.131Z,98698.98
2019-04-26T11:12:20.367Z,98693.06
2019-04-26T11:14:57.032Z,98692.91
2019-04-26T11:17:33.251Z,98693.54
2019-04-26T11:20:10.551Z,98694.04
2019-04-26T11:22:47.112Z,98684.97
2019-04-26T11:25:24.625Z,98683.78
2019-04-26T11:28:00.762Z,98673.95
2019-04-26T11:30:36.710Z,98665.47
2019-04-26T11:33:12.866Z,98675.14
2019-04-26T11:35:48.936Z,98673.66
2019-04-26T11:38:26.883Z,98668.28
2019-04-26T11:41:06.328Z,98669.39
2019-04-26T11:43:40.079Z,98659.23
2019-04-26T11:46:16.347Z,98662.44
2019-04-26T11:48:58.891Z,98657.36
2019-04-26T11:51:29.992Z,98652.67
2019-04-26T11:54:05.961Z,98657.38
2019-04-26T11:56:41.915Z,98655.64
2019-04-26T11:59:17.858Z,98651.71
2019-04-26T12:01:53.815Z,98650.84
2019-04-26T12:04:31.325Z,98650.86
2019-04-26T12:07:11.975Z,98658.05
2019-04-26T12:09:49.501Z,98653.06
2019-04-26T12:12:25.721Z,98645.98
2019-04-26T12:15:03.876Z,98645.89
2019-04-26T12:17:40.942Z,98645.20
2019-04-26T12:20:16.889Z,98639.50
2019-04-26T12:22:52.846Z,98642.87
2019-04-26T12:25:31.079Z,98644.45
2019-04-26T12:28:07.384Z,98640.50
2019-04-26T12:30:43.480Z,98649.89
2019-04-26T12:33:19.425Z,98646.61
2019-04-26T12:35:57.063Z,98644.48
2019-04-26T12:38:33.089Z,98634.30
2019-04-26T12:41:11.418Z,98633.83
2019-04-26T12:43:46.628Z,98635.73
2019-04-26T12:46:36.205Z,98629.54
2019-04-26T12:49:12.276Z,98634.47
2019-04-26T12:51:48.838Z,98633.77
2019-04-26T12:54:25.923Z,98625.89
2019-04-26T12:57:05.823Z,98620.28
2019-04-26T12:59:44.453Z,98625.22
2019-04-26T13:02:20.970Z,98623.35
2019-04-26T13:04:54.864Z,98628.84
2019-04-26T13:07:30.833Z,98629.31
2019-04-26T13:10:12.519Z,98629.60
2019-04-26T13:12:53.176Z,98626.39
2019-04-26T13:15:51.799Z,98630.12
2019-04-26T13:18:27.941Z,98631.19
2019-04-26T13:21:04.379Z,98628.97
2019-04-26T13:23:40.565Z,98620.27
2019-04-26T13:26:16.524Z,98619.73
2019-04-26T13:28:56.977Z,98626.88
2019-04-26T13:31:31.723Z,98629.52
2019-04-26T13:34:08.076Z,98619.45
2019-04-26T13:36:44.018Z,98622.66
2019-04-26T13:39:22.393Z,98621.98
2019-04-26T13:42:04.512Z,98618.88
2019-04-26T13:44:56.473Z,98612.88
2019-04-26T13:47:35.063Z,98612.34
2019-04-26T13:50:15.463Z,98604.97
2019-04-26T13:52:51.402Z,98614.98
2019-04-26T13:55:29.440Z,98603.02
2019-04-26T13:58:06.410Z,98611.50
2019-04-26T14:00:43.566Z,98601.50
2019-04-26T14:03:20.154Z,98606.49
2019-04-26T14:05:56.098Z,98602.09
2019-04-26T14:08:32.067Z,98603.38
2019-04-26T14:11:08.112Z,98597.92
2019-04-26T14:13:44.081Z,98594.82
2019-04-26T14:16:21.166Z,98596.55
2019-04-26T14:18:57.736Z,98602.55
2019-04-26T14:21:34.830Z,98607.83
2019-04-26T14:24:24.065Z,98606.47
2019-04-26T14:27:04.143Z,98610.72
2019-04-26T14:29:40.196Z,98607.91
2019-04-26T14:32:16.155Z,98609.86
2019-04-26T14:34:52.212Z,98611.12
2019-04-26T14:37:29.183Z,98602.22
2019-04-26T14:40:16.607Z,98607.67
2019-04-26T14:42:47.201Z,98604.41
2019-04-26T14:45:24.139Z,98601.70
2019-04-26T14:48:03.982Z,98608.39
2019-04-26T14:50:38.178Z,98608.64
2019-04-26T14:53:14.071Z,98607.52
2019-04-26T14:55:51.188Z,98600.38
2019-04-26T14:58:30.092Z,98607.12
2019-04-26T15:01:07.021Z,98603.48
2019-04-26T15:04:00.586Z,98600.14
2019-04-26T15:06:38.197Z,98601.87
2019-04-26T15:09:19.820Z,98597.08
2019-04-26T15:11:58.610Z,98596.29
2019-04-26T15:14:31.221Z,98599.91
2019-04-26T15:17:07.346Z,98593.46
2019-04-26T15:19:45.919Z,98595.69
2019-04-26T15:22:20.988Z,98594.69
2019-04-26T15:24:57.266Z,98589.69
2019-04-26T15:27:36.272Z,98588.33
2019-04-26T15:30:11.326Z,98593.48
2019-04-26T15:32:47.273Z,98591.67
2019-04-26T15:35:23.325Z,98595.88
2019-04-26T15:38:01.437Z,98596.33
2019-04-26T15:40:42.480Z,98590.78
2019-04-26T15:43:20.121Z,98591.97
2019-04-26T15:46:14.031Z,98592.21
2019-04-26T15:49:09.523Z,98586.97
2019-04-26T15:51:46.079Z,98585.05
2019-04-26T15:54:23.032Z,98588.17
2019-04-26T15:56:59.009Z,98587.26
2019-04-26T15:59:34.979Z,98585.98
2019-04-26T16:02:12.440Z,98585.36
2019-04-26T16:04:51.365Z,98589.03
2019-04-26T16:07:28.793Z,98586.43
2019-04-26T16:10:04.739Z,98581.83
2019-04-26T16:12:42.249Z,98580.88
2019-04-26T16:15:18.279Z,98578.28
2019-04-26T16:17:54.238Z,98578.84
2019-04-26T16:20:37.414Z,98575.22
2019-04-26T16:23:09.016Z,98573.80
2019-04-26T16:25:44.973Z,98573.52
2019-04-26T16:28:26.570Z,98572.81
2019-04-26T16:31:22.602Z,98567.17
2019-04-26T16:34:04.105Z,98563.59
2019-04-26T16:36:43.849Z,98561.41
2019-04-26T16:39:16.089Z,98564.84
2019-04-26T16:41:52.495Z,98562.98
2019-04-26T16:44:31.411Z,98566.84
2019-04-26T16:47:07.439Z,98567.47
2019-04-26T16:49:46.250Z,98563.81
2019-04-26T16:52:21.110Z,98564.53
2019-04-26T16:55:02.323Z,98565.26
2019-04-26T16:57:35.167Z,98565.98
2019-04-26T17:00:15.800Z,98564.84
2019-04-26T17:02:49.814Z,98561.20
2019-04-26T17:05:46.904Z,98561.58
2019-04-26T17:08:05.144Z,98557.73
2019-04-26T17:10:42.041Z,98564.28
2019-04-26T17:13:18.050Z,98564.36
2019-04-26T17:15:58.235Z,98568.75
2019-04-26T17:18:32.391Z,98567.89
2019-04-26T17:21:08.461Z,98568.73
2019-04-26T17:23:52.984Z,98572.46
2019-04-26T17:26:36.437Z,98567.20
2019-04-26T17:29:11.835Z,98568.92
2019-04-26T17:31:47.728Z,98571.52
2019-04-26T17:34:28.860Z,98571.17
2019-04-26T17:37:02.474Z,98578.11
2019-04-26T17:39:40.681Z,98571.05
2019-04-26T17:42:16.705Z,98574.13
2019-04-26T17:44:52.622Z,98583.13
2019-04-26T17:47:34.650Z,98581.08
2019-04-26T17:50:08.529Z,98578.09
2019-04-26T17:52:44.447Z,98579.28
2019-04-26T17:55:20.463Z,98577.83
2019-04-26T17:58:09.733Z,98585.55
2019-04-26T18:00:45.580Z,98577.75
2019-04-26T18:03:14.850Z,98590.27
2019-04-26T18:05:56.988Z,98594.00
2019-04-26T18:08:41.061Z,98599.42
2019-04-26T18:11:04.673Z,98592.83
2019-04-26T18:13:40.711Z,98592.78
2019-04-26T18:16:17.748Z,98600.30
2019-04-26T18:19:13.073Z,98596.18
2019-04-26T18:22:08.913Z,98600.43
2019-04-26T18:24:44.978Z,98608.36
2019-04-26T18:27:20.890Z,98600.32
2019-04-26T18:29:59.810Z,98609.20
2019-04-26T18:32:42.132Z,98605.78
2019-04-26T18:35:16.642Z,98616.32
2019-04-26T18:37:50.728Z,98611.47
2019-04-26T18:40:26.682Z,98621.14
2019-04-26T18:43:03.456Z,98612.89
2019-04-26T18:45:39.556Z,98610.57
2019-04-26T18:48:15.475Z,98621.24
2019-04-26T18:50:51.383Z,98623.15
2019-04-26T18:53:39.390Z,98622.17
2019-04-26T18:56:14.036Z,98617.00
2019-04-26T18:58:51.552Z,98620.78
2019-04-26T19:01:27.551Z,98615.75
2019-04-26T19:04:09.871Z,98619.80
2019-04-26T19:06:42.323Z,98622.88
2019-04-26T19:09:21.230Z,98619.20
2019-04-26T19:11:57.602Z,98616.84
2019-04-26T19:14:49.753Z,98618.25
2019-04-26T19:17:33.832Z,98626.52
2019-04-26T19:20:11.643Z,98616.92
2019-04-26T19:22:50.397Z,98624.36
2019-04-26T19:25:29.857Z,98620.37
2019-04-26T19:28:08.189Z,98623.07
2019-04-26T19:30:49.514Z,98622.78
2019-04-26T19:33:21.806Z,98620.71
2019-04-26T19:35:57.808Z,98621.92
2019-04-26T19:38:33.816Z,98619.73
2019-04-26T19:41:09.728Z,98614.18
2019-04-26T19:43:46.287Z,98615.73
2019-04-26T19:46:25.278Z,98618.61
2019-04-26T19:49:19.060Z,98615.09
2019-04-26T19:52:14.856Z,98621.55
2019-04-26T19:54:53.029Z,98616.89
2019-04-26T19:57:47.734Z,98614.89
2019-04-26T20:00:25.073Z,98613.59
2019-04-26T20:03:01.642Z,98607.03
2019-04-26T20:05:40.593Z,98610.93
2019-04-26T20:08:15.324Z,98610.98
2019-04-26T20:10:52.085Z,98615.05
2019-04-26T20:13:28.063Z,98604.98
2019-04-26T20:16:06.053Z,98605.48
2019-04-26T20:18:42.134Z,98608.71
2019-04-26T20:21:18.070Z,98607.06
2019-04-26T20:23:54.644Z,98606.92
2019-04-26T20:26:31.500Z,98599.71
2019-04-26T20:29:10.189Z,98606.66
2019-04-26T20:31:47.832Z,98612.27
2019-04-26T20:34:23.811Z,98608.42
2019-04-26T20:37:01.391Z,98606.73
2019-04-26T20:39:38.529Z,98603.41
2019-04-26T20:42:14.593Z,98604.12
2019-04-26T20:44:53.111Z,98606.82
2019-04-26T20:47:28.240Z,98600.08
2019-04-26T20:50:05.715Z,98603.49
2019-04-26T20:52:41.692Z,98598.61
2019-04-26T20:55:17.583Z,98596.63
2019-04-26T20:57:53.604Z,98590.89
2019-04-26T21:00:31.518Z,98582.64
2019-04-26T21:03:20.135Z,98589.38
2019-04-26T21:05:46.619Z,98594.26
2019-04-26T21:08:25.770Z,98593.42
2019-04-26T21:11:01.705Z,98593.11
2019-04-26T21:13:38.251Z,98592.78
2019-04-26T21:16:15.564Z,98593.81
2019-04-26T21:18:52.352Z,98592.14
2019-04-26T21:21:28.481Z,98589.44
2019-04-26T21:24:05.843Z,98597.03
2019-04-26T21:26:46.632Z,98595.70
2019-04-26T21:29:28.324Z,98600.26
2019-04-26T21:32:08.886Z,98610.51
2019-04-26T21:34:50.487Z,98608.84
2019-04-26T21:37:28.487Z,98605.14
2019-04-26T21:40:07.345Z,98613.06
2019-04-26T21:42:45.074Z,98618.95
2019-04-26T21:45:28.463Z,98616.75
2019-04-26T21:48:02.669Z,98613.55
2019-04-26T21:50:39.051Z,98618.77
2019-04-26T21:53:14.868Z,98624.48
2019-04-26T21:55:50.818Z,98620.63
2019-04-26T21:58:26.781Z,98627.52
2019-04-26T22:01:04.467Z,98638.98
2019-04-26T22:03:47.413Z,98656.83
2019-04-26T22:06:24.487Z,98654.46
2019-04-26T22:09:02.545Z,98665.91
2019-04-26T22:11:38.506Z,98666.92
2019-04-26T22:14:20.052Z,98662.89
2019-04-26T22:17:02.318Z,98660.70
2019-04-26T22:19:49.862Z,98674.81
2019-04-26T22:22:27.354Z,98673.14
2019-04-26T22:25:05.043Z,98677.00
2019-04-26T22:27:40.951Z,98679.88
2019-04-26T22:30:22.725Z,98675.33
2019-04-26T22:32:58.532Z,98682.23
2019-04-26T22:35:34.601Z,98684.08
2019-04-26T22:38:10.561Z,98674.82
2019-04-26T22:40:48.534Z,98674.95
2019-04-26T22:43:28.528Z,98682.87
2019-04-26T22:46:14.106Z,98692.41
2019-04-26T22:48:54.645Z,98705.34
2019-04-26T22:51:33.514Z,98708.31
2019-04-26T22:54:07.284Z,98714.69
2019-04-26T22:56:43.830Z,98723.09
2019-04-26T22:59:20.850Z,98728.08
2019-04-26T23:01:56.795Z,98736.77
2019-04-26T23:04:33.056Z,98733.69
2019-04-26T23:07:10.859Z,98717.84
2019-04-26T23:09:51.777Z,98717.66
2019-04-26T23:12:33.419Z,98723.98
2019-04-26T23:15:30.142Z,98722.08
2019-04-26T23:18:14.014Z,98719.14
2019-04-26T23:20:51.103Z,98717.60
2019-04-26T23:23:27.044Z,98714.88
2019-04-26T23:26:06.304Z,98723.91
2019-04-26T23:28:40.915Z,98734.27
2019-04-26T23:31:16.861Z,98739.78
2019-04-26T23:33:53.939Z,98738.20
2019-04-26T23:36:30.112Z,98744.86
2019-04-26T23:39:07.717Z,98743.46
2019-04-26T23:41:45.303Z,98739.48
2019-04-26T23:44:23.067Z,98728.51
2019-04-26T23:47:01.209Z,98727.16
2019-04-26T23:49:36.654Z,98731.88
2019-04-26T23:52:14.569Z,98742.37
2019-04-26T23:54:50.402Z,98755.26
2019-04-26T23:57:27.400Z,98775.89
